sensor_id;sensor_type;location;lat;lon;timestamp;temperature;humidity
37642;DHT22;23486;51.956;5.888;2024-03-02T00:00:36;8.20;99.90
37642;DHT22;23486;51.956;5.888;2024-03-02T00:03:02;8.20;99.90
37642;DHT22;23486;51.956;5.888;2024-03-02T00:05:28;8.20;99.90
37642;DHT22;23486;51.956;5.888;2024-03-02T00:07:57;8.30;99.90
37642;DHT22;23486;51.956;5.888;2024-03-02T00:10:26;8.30;99.90
37642;DHT22;23486;51.956;5.888;2024-03-02T00:12:56;8.20;99.90
37642;DHT22;23486;51.956;5.888;2024-03-02T00:18:19;8.40;99.90
37642;DHT22;23486;51.956;5.888;2024-03-02T00:20:45;8.40;99.90
37642;DHT22;23486;51.956;5.888;2024-03-02T00:23:16;8.40;99.90
37642;DHT22;23486;51.956;5.888;2024-03-02T00:25:52;8.40;99.90
37642;DHT22;23486;51.956;5.888;2024-03-02T00:28:25;8.40;99.90
37642;DHT22;23486;51.956;5.888;2024-03-02T00:33:18;8.40;99.90
37642;DHT22;23486;51.956;5.888;2024-03-02T00:35:45;8.40;99.90
37642;DHT22;23486;51.956;5.888;2024-03-02T00:38:10;8.50;99.90
37642;DHT22;23486;51.956;5.888;2024-03-02T00:40:36;8.50;99.90
37642;DHT22;23486;51.956;5.888;2024-03-02T00:43:01;8.50;99.90
37642;DHT22;23486;51.956;5.888;2024-03-02T00:45:28;8.50;99.90
37642;DHT22;23486;51.956;5.888;2024-03-02T00:47:54;8.50;99.90
37642;DHT22;23486;51.956;5.888;2024-03-02T00:50:19;8.50;99.90
37642;DHT22;23486;51.956;5.888;2024-03-02T00:52:45;8.50;99.90
37642;DHT22;23486;51.956;5.888;2024-03-02T00:55:13;8.50;99.90
37642;DHT22;23486;51.956;5.888;2024-03-02T00:57:39;8.50;99.90
37642;DHT22;23486;51.956;5.888;2024-03-02T01:00:05;8.40;99.90
37642;DHT22;23486;51.956;5.888;2024-03-02T01:02:35;8.40;99.90
37642;DHT22;23486;51.956;5.888;2024-03-02T01:05:00;8.50;99.90
37642;DHT22;23486;51.956;5.888;2024-03-02T01:07:26;8.40;99.90
37642;DHT22;23486;51.956;5.888;2024-03-02T01:09:51;8.40;99.90
37642;DHT22;23486;51.956;5.888;2024-03-02T01:12:17;8.40;99.90
37642;DHT22;23486;51.956;5.888;2024-03-02T01:14:42;8.40;99.90
37642;DHT22;23486;51.956;5.888;2024-03-02T01:17:08;8.50;99.90
37642;DHT22;23486;51.956;5.888;2024-03-02T01:19:33;8.50;99.90
37642;DHT22;23486;51.956;5.888;2024-03-02T01:21:59;8.50;99.90
37642;DHT22;23486;51.956;5.888;2024-03-02T01:24:24;8.50;99.90
37642;DHT22;23486;51.956;5.888;2024-03-02T01:26:52;8.50;99.90
37642;DHT22;23486;51.956;5.888;2024-03-02T01:29:18;8.50;99.90
37642;DHT22;23486;51.956;5.888;2024-03-02T01:31:43;8.50;99.90
37642;DHT22;23486;51.956;5.888;2024-03-02T01:34:09;8.50;99.90
37642;DHT22;23486;51.956;5.888;2024-03-02T01:36:34;8.50;99.90
37642;DHT22;23486;51.956;5.888;2024-03-02T01:39:00;8.50;99.90
37642;DHT22;23486;51.956;5.888;2024-03-02T01:41:26;8.50;99.90
37642;DHT22;23486;51.956;5.888;2024-03-02T01:43:51;8.50;99.90
37642;DHT22;23486;51.956;5.888;2024-03-02T01:46:17;8.50;99.90
37642;DHT22;23486;51.956;5.888;2024-03-02T01:48:42;8.50;99.90
37642;DHT22;23486;51.956;5.888;2024-03-02T01:51:08;8.50;99.90
37642;DHT22;23486;51.956;5.888;2024-03-02T01:53:36;8.50;99.90
37642;DHT22;23486;51.956;5.888;2024-03-02T01:56:02;8.50;99.90
37642;DHT22;23486;51.956;5.888;2024-03-02T01:58:28;8.40;99.90
37642;DHT22;23486;51.956;5.888;2024-03-02T02:00:53;8.50;99.90
37642;DHT22;23486;51.956;5.888;2024-03-02T02:03:19;8.50;99.90
37642;DHT22;23486;51.956;5.888;2024-03-02T02:05:45;8.40;99.90
37642;DHT22;23486;51.956;5.888;2024-03-02T02:08:12;8.40;99.90
37642;DHT22;23486;51.956;5.888;2024-03-02T02:10:37;8.40;99.90
37642;DHT22;23486;51.956;5.888;2024-03-02T02:13:03;8.40;99.90
37642;DHT22;23486;51.956;5.888;2024-03-02T02:15:29;8.40;99.90
37642;DHT22;23486;51.956;5.888;2024-03-02T02:17:55;8.40;99.90
37642;DHT22;23486;51.956;5.888;2024-03-02T02:20:20;8.40;99.90
37642;DHT22;23486;51.956;5.888;2024-03-02T02:25:20;8.30;99.90
37642;DHT22;23486;51.956;5.888;2024-03-02T02:27:46;8.30;99.90
37642;DHT22;23486;51.956;5.888;2024-03-02T02:30:11;8.30;99.90
37642;DHT22;23486;51.956;5.888;2024-03-02T02:32:37;8.30;99.90
37642;DHT22;23486;51.956;5.888;2024-03-02T02:35:02;8.30;99.90
37642;DHT22;23486;51.956;5.888;2024-03-02T02:37:28;8.30;99.90
37642;DHT22;23486;51.956;5.888;2024-03-02T02:39:54;8.30;99.90
37642;DHT22;23486;51.956;5.888;2024-03-02T02:42:19;8.30;99.90
37642;DHT22;23486;51.956;5.888;2024-03-02T02:44:45;8.30;99.90
37642;DHT22;23486;51.956;5.888;2024-03-02T02:47:10;8.30;99.90
37642;DHT22;23486;51.956;5.888;2024-03-02T02:49:36;8.30;99.90
37642;DHT22;23486;51.956;5.888;2024-03-02T02:52:01;8.30;99.90
37642;DHT22;23486;51.956;5.888;2024-03-02T02:54:27;8.20;99.90
37642;DHT22;23486;51.956;5.888;2024-03-02T02:56:52;8.20;99.90
37642;DHT22;23486;51.956;5.888;2024-03-02T02:59:17;8.20;99.90
37642;DHT22;23486;51.956;5.888;2024-03-02T03:01:43;8.20;99.90
37642;DHT22;23486;51.956;5.888;2024-03-02T03:04:09;8.20;99.90
37642;DHT22;23486;51.956;5.888;2024-03-02T03:06:34;8.20;99.90
37642;DHT22;23486;51.956;5.888;2024-03-02T03:09:00;8.20;99.90
37642;DHT22;23486;51.956;5.888;2024-03-02T03:11:25;8.20;99.90
37642;DHT22;23486;51.956;5.888;2024-03-02T03:13:54;8.10;99.90
37642;DHT22;23486;51.956;5.888;2024-03-02T03:16:19;8.20;99.90
37642;DHT22;23486;51.956;5.888;2024-03-02T03:18:45;8.10;99.90
37642;DHT22;23486;51.956;5.888;2024-03-02T03:21:11;8.10;99.90
37642;DHT22;23486;51.956;5.888;2024-03-02T03:23:36;8.10;99.90
37642;DHT22;23486;51.956;5.888;2024-03-02T03:26:01;8.10;99.90
37642;DHT22;23486;51.956;5.888;2024-03-02T03:28:27;8.10;99.90
37642;DHT22;23486;51.956;5.888;2024-03-02T03:30:52;8.10;99.90
37642;DHT22;23486;51.956;5.888;2024-03-02T03:33:18;8.10;99.90
37642;DHT22;23486;51.956;5.888;2024-03-02T03:35:43;8.10;99.90
37642;DHT22;23486;51.956;5.888;2024-03-02T03:38:09;8.10;99.90
37642;DHT22;23486;51.956;5.888;2024-03-02T03:40:34;8.00;99.90
37642;DHT22;23486;51.956;5.888;2024-03-02T03:43:00;8.00;99.90
37642;DHT22;23486;51.956;5.888;2024-03-02T03:45:25;8.00;99.90
37642;DHT22;23486;51.956;5.888;2024-03-02T03:47:52;8.10;99.90
37642;DHT22;23486;51.956;5.888;2024-03-02T03:50:18;8.00;99.90
37642;DHT22;23486;51.956;5.888;2024-03-02T03:52:43;8.00;99.90
37642;DHT22;23486;51.956;5.888;2024-03-02T03:55:09;7.90;99.90
37642;DHT22;23486;51.956;5.888;2024-03-02T03:57:35;7.90;99.90
37642;DHT22;23486;51.956;5.888;2024-03-02T04:00:01;7.90;99.90
37642;DHT22;23486;51.956;5.888;2024-03-02T04:02:26;7.80;99.90
37642;DHT22;23486;51.956;5.888;2024-03-02T04:04:52;7.80;99.90
37642;DHT22;23486;51.956;5.888;2024-03-02T04:07:17;7.80;99.90
37642;DHT22;23486;51.956;5.888;2024-03-02T04:09:43;7.80;99.90
37642;DHT22;23486;51.956;5.888;2024-03-02T04:12:08;7.80;99.90
37642;DHT22;23486;51.956;5.888;2024-03-02T04:14:34;7.80;99.90
37642;DHT22;23486;51.956;5.888;2024-03-02T04:16:59;7.80;99.90
37642;DHT22;23486;51.956;5.888;2024-03-02T04:19:25;7.80;99.90
37642;DHT22;23486;51.956;5.888;2024-03-02T04:21:50;7.80;99.90
37642;DHT22;23486;51.956;5.888;2024-03-02T04:24:16;7.80;99.90
37642;DHT22;23486;51.956;5.888;2024-03-02T04:26:41;7.80;99.90
37642;DHT22;23486;51.956;5.888;2024-03-02T04:29:07;7.70;99.90
37642;DHT22;23486;51.956;5.888;2024-03-02T04:31:33;7.70;99.90
37642;DHT22;23486;51.956;5.888;2024-03-02T04:33:58;7.80;99.90
37642;DHT22;23486;51.956;5.888;2024-03-02T04:36:24;7.70;99.90
37642;DHT22;23486;51.956;5.888;2024-03-02T04:38:49;7.70;99.90
37642;DHT22;23486;51.956;5.888;2024-03-02T04:41:15;7.60;99.90
37642;DHT22;23486;51.956;5.888;2024-03-02T04:43:40;7.60;99.90
37642;DHT22;23486;51.956;5.888;2024-03-02T04:46:06;7.60;99.90
37642;DHT22;23486;51.956;5.888;2024-03-02T04:48:32;7.60;99.90
37642;DHT22;23486;51.956;5.888;2024-03-02T04:50:57;7.50;99.90
37642;DHT22;23486;51.956;5.888;2024-03-02T04:53:23;7.40;99.90
37642;DHT22;23486;51.956;5.888;2024-03-02T04:55:48;7.40;99.90
37642;DHT22;23486;51.956;5.888;2024-03-02T04:58:32;7.30;99.90
37642;DHT22;23486;51.956;5.888;2024-03-02T05:01:01;7.30;99.90
37642;DHT22;23486;51.956;5.888;2024-03-02T05:03:26;7.20;99.90
37642;DHT22;23486;51.956;5.888;2024-03-02T05:05:52;7.10;99.90
37642;DHT22;23486;51.956;5.888;2024-03-02T05:08:17;7.10;99.90
37642;DHT22;23486;51.956;5.888;2024-03-02T05:10:43;7.00;99.90
37642;DHT22;23486;51.956;5.888;2024-03-02T05:13:08;6.90;99.90
37642;DHT22;23486;51.956;5.888;2024-03-02T05:15:34;7.00;99.90
37642;DHT22;23486;51.956;5.888;2024-03-02T05:17:59;6.90;99.90
37642;DHT22;23486;51.956;5.888;2024-03-02T05:20:27;6.90;99.90
37642;DHT22;23486;51.956;5.888;2024-03-02T05:22:53;6.90;99.90
37642;DHT22;23486;51.956;5.888;2024-03-02T05:25:18;6.90;99.90
37642;DHT22;23486;51.956;5.888;2024-03-02T05:27:44;6.90;99.90
37642;DHT22;23486;51.956;5.888;2024-03-02T05:30:09;6.80;99.90
37642;DHT22;23486;51.956;5.888;2024-03-02T05:32:35;6.80;99.90
37642;DHT22;23486;51.956;5.888;2024-03-02T05:35:00;6.90;99.90
37642;DHT22;23486;51.956;5.888;2024-03-02T05:37:26;6.80;99.90
37642;DHT22;23486;51.956;5.888;2024-03-02T05:39:51;6.80;99.90
37642;DHT22;23486;51.956;5.888;2024-03-02T05:42:17;6.90;99.90
37642;DHT22;23486;51.956;5.888;2024-03-02T05:44:43;6.80;99.90
37642;DHT22;23486;51.956;5.888;2024-03-02T05:47:08;6.80;99.90
37642;DHT22;23486;51.956;5.888;2024-03-02T05:49:34;6.70;99.90
37642;DHT22;23486;51.956;5.888;2024-03-02T05:52:00;6.70;99.90
37642;DHT22;23486;51.956;5.888;2024-03-02T05:54:25;6.60;99.90
37642;DHT22;23486;51.956;5.888;2024-03-02T05:56:50;6.60;99.90
37642;DHT22;23486;51.956;5.888;2024-03-02T05:59:16;6.60;99.90
37642;DHT22;23486;51.956;5.888;2024-03-02T06:01:42;6.60;99.90
37642;DHT22;23486;51.956;5.888;2024-03-02T06:04:08;6.50;99.90
37642;DHT22;23486;51.956;5.888;2024-03-02T06:06:34;6.50;99.90
37642;DHT22;23486;51.956;5.888;2024-03-02T06:09:02;6.40;99.90
37642;DHT22;23486;51.956;5.888;2024-03-02T06:11:36;6.40;99.90
37642;DHT22;23486;51.956;5.888;2024-03-02T06:14:02;6.30;99.90
37642;DHT22;23486;51.956;5.888;2024-03-02T06:16:28;6.30;99.90
37642;DHT22;23486;51.956;5.888;2024-03-02T06:18:55;6.20;99.90
37642;DHT22;23486;51.956;5.888;2024-03-02T06:21:23;6.10;99.90
37642;DHT22;23486;51.956;5.888;2024-03-02T06:23:48;6.10;99.90
37642;DHT22;23486;51.956;5.888;2024-03-02T06:26:14;6.10;99.90
37642;DHT22;23486;51.956;5.888;2024-03-02T06:28:39;6.00;99.90
37642;DHT22;23486;51.956;5.888;2024-03-02T06:31:05;6.00;99.90
37642;DHT22;23486;51.956;5.888;2024-03-02T06:33:30;6.00;99.90
37642;DHT22;23486;51.956;5.888;2024-03-02T06:35:56;6.00;99.90
37642;DHT22;23486;51.956;5.888;2024-03-02T06:38:21;6.00;99.90
37642;DHT22;23486;51.956;5.888;2024-03-02T06:40:46;6.10;99.90
37642;DHT22;23486;51.956;5.888;2024-03-02T06:43:12;6.20;99.90
37642;DHT22;23486;51.956;5.888;2024-03-02T06:45:37;6.20;99.90
37642;DHT22;23486;51.956;5.888;2024-03-02T06:48:03;6.30;99.90
37642;DHT22;23486;51.956;5.888;2024-03-02T06:50:28;6.40;99.90
37642;DHT22;23486;51.956;5.888;2024-03-02T06:52:54;6.50;99.90
37642;DHT22;23486;51.956;5.888;2024-03-02T06:55:21;6.60;99.90
37642;DHT22;23486;51.956;5.888;2024-03-02T06:57:47;6.70;99.90
37642;DHT22;23486;51.956;5.888;2024-03-02T07:00:12;6.80;99.90
37642;DHT22;23486;51.956;5.888;2024-03-02T07:02:39;6.90;99.90
37642;DHT22;23486;51.956;5.888;2024-03-02T07:05:07;7.00;99.90
37642;DHT22;23486;51.956;5.888;2024-03-02T07:07:33;7.00;99.90
37642;DHT22;23486;51.956;5.888;2024-03-02T07:10:00;6.90;99.90
37642;DHT22;23486;51.956;5.888;2024-03-02T07:12:25;6.90;99.90
37642;DHT22;23486;51.956;5.888;2024-03-02T07:14:51;6.80;99.90
37642;DHT22;23486;51.956;5.888;2024-03-02T07:17:29;6.80;99.90
37642;DHT22;23486;51.956;5.888;2024-03-02T07:19:54;6.80;99.90
37642;DHT22;23486;51.956;5.888;2024-03-02T07:22:20;6.80;99.90
37642;DHT22;23486;51.956;5.888;2024-03-02T07:24:45;6.80;99.90
37642;DHT22;23486;51.956;5.888;2024-03-02T07:27:14;6.80;99.90
37642;DHT22;23486;51.956;5.888;2024-03-02T07:29:40;6.80;99.90
37642;DHT22;23486;51.956;5.888;2024-03-02T07:32:07;6.80;99.90
37642;DHT22;23486;51.956;5.888;2024-03-02T07:34:33;6.80;99.90
37642;DHT22;23486;51.956;5.888;2024-03-02T07:36:59;6.70;99.90
37642;DHT22;23486;51.956;5.888;2024-03-02T07:39:24;6.80;99.90
37642;DHT22;23486;51.956;5.888;2024-03-02T07:41:50;6.80;99.90
37642;DHT22;23486;51.956;5.888;2024-03-02T07:44:16;6.80;99.90
37642;DHT22;23486;51.956;5.888;2024-03-02T07:46:41;6.90;99.90
37642;DHT22;23486;51.956;5.888;2024-03-02T07:49:07;6.90;99.90
37642;DHT22;23486;51.956;5.888;2024-03-02T07:51:33;7.00;99.90
37642;DHT22;23486;51.956;5.888;2024-03-02T07:53:58;7.00;99.90
37642;DHT22;23486;51.956;5.888;2024-03-02T07:56:24;7.10;99.90
37642;DHT22;23486;51.956;5.888;2024-03-02T07:58:50;7.10;99.90
37642;DHT22;23486;51.956;5.888;2024-03-02T08:01:15;7.20;99.90
37642;DHT22;23486;51.956;5.888;2024-03-02T08:03:41;7.30;99.90
37642;DHT22;23486;51.956;5.888;2024-03-02T08:06:06;7.30;99.90
37642;DHT22;23486;51.956;5.888;2024-03-02T08:08:32;7.40;99.90
37642;DHT22;23486;51.956;5.888;2024-03-02T08:10:57;7.50;99.90
37642;DHT22;23486;51.956;5.888;2024-03-02T08:13:23;7.60;99.90
37642;DHT22;23486;51.956;5.888;2024-03-02T08:15:48;7.70;99.90
37642;DHT22;23486;51.956;5.888;2024-03-02T08:18:14;7.80;99.90
37642;DHT22;23486;51.956;5.888;2024-03-02T08:20:40;7.90;99.90
37642;DHT22;23486;51.956;5.888;2024-03-02T08:23:05;8.00;99.90
37642;DHT22;23486;51.956;5.888;2024-03-02T08:25:31;8.10;99.90
37642;DHT22;23486;51.956;5.888;2024-03-02T08:27:56;8.10;99.90
37642;DHT22;23486;51.956;5.888;2024-03-02T08:30:22;8.20;99.90
37642;DHT22;23486;51.956;5.888;2024-03-02T08:32:47;8.30;99.90
37642;DHT22;23486;51.956;5.888;2024-03-02T08:35:13;8.30;99.90
37642;DHT22;23486;51.956;5.888;2024-03-02T08:37:41;8.30;99.90
37642;DHT22;23486;51.956;5.888;2024-03-02T08:40:07;8.30;99.90
37642;DHT22;23486;51.956;5.888;2024-03-02T08:42:33;8.40;99.90
37642;DHT22;23486;51.956;5.888;2024-03-02T08:44:58;8.40;99.90
37642;DHT22;23486;51.956;5.888;2024-03-02T08:47:26;8.40;99.90
37642;DHT22;23486;51.956;5.888;2024-03-02T08:49:52;8.40;99.90
37642;DHT22;23486;51.956;5.888;2024-03-02T08:52:17;8.40;99.90
37642;DHT22;23486;51.956;5.888;2024-03-02T08:54:43;8.40;99.90
37642;DHT22;23486;51.956;5.888;2024-03-02T08:57:08;8.40;99.90
37642;DHT22;23486;51.956;5.888;2024-03-02T08:59:34;8.40;99.90
37642;DHT22;23486;51.956;5.888;2024-03-02T09:01:59;8.40;99.90
37642;DHT22;23486;51.956;5.888;2024-03-02T09:04:25;8.50;99.90
37642;DHT22;23486;51.956;5.888;2024-03-02T09:06:50;8.50;99.90
37642;DHT22;23486;51.956;5.888;2024-03-02T09:09:16;8.50;99.90
37642;DHT22;23486;51.956;5.888;2024-03-02T09:11:41;8.60;99.90
37642;DHT22;23486;51.956;5.888;2024-03-02T09:14:07;8.60;99.90
37642;DHT22;23486;51.956;5.888;2024-03-02T09:16:32;8.60;99.90
37642;DHT22;23486;51.956;5.888;2024-03-02T09:18:58;8.60;99.90
37642;DHT22;23486;51.956;5.888;2024-03-02T09:21:23;8.70;99.90
37642;DHT22;23486;51.956;5.888;2024-03-02T09:23:50;8.80;99.90
37642;DHT22;23486;51.956;5.888;2024-03-02T09:26:16;8.80;99.90
37642;DHT22;23486;51.956;5.888;2024-03-02T09:28:45;8.80;99.90
37642;DHT22;23486;51.956;5.888;2024-03-02T09:31:10;8.80;99.90
37642;DHT22;23486;51.956;5.888;2024-03-02T09:33:37;8.90;99.90
37642;DHT22;23486;51.956;5.888;2024-03-02T09:36:04;8.90;99.90
37642;DHT22;23486;51.956;5.888;2024-03-02T09:38:31;8.90;99.90
37642;DHT22;23486;51.956;5.888;2024-03-02T09:40:57;8.90;99.90
37642;DHT22;23486;51.956;5.888;2024-03-02T09:43:22;8.90;99.90
37642;DHT22;23486;51.956;5.888;2024-03-02T09:45:48;8.90;99.90
37642;DHT22;23486;51.956;5.888;2024-03-02T09:48:14;8.90;99.90
37642;DHT22;23486;51.956;5.888;2024-03-02T09:50:40;9.00;99.90
37642;DHT22;23486;51.956;5.888;2024-03-02T09:53:07;9.00;99.90
37642;DHT22;23486;51.956;5.888;2024-03-02T09:55:33;9.10;99.90
37642;DHT22;23486;51.956;5.888;2024-03-02T09:57:59;9.10;99.90
37642;DHT22;23486;51.956;5.888;2024-03-02T10:00:24;9.20;99.90
37642;DHT22;23486;51.956;5.888;2024-03-02T10:02:50;9.20;99.90
37642;DHT22;23486;51.956;5.888;2024-03-02T10:05:25;9.20;99.90
37642;DHT22;23486;51.956;5.888;2024-03-02T10:08:02;9.30;99.90
37642;DHT22;23486;51.956;5.888;2024-03-02T10:10:37;9.30;99.90
37642;DHT22;23486;51.956;5.888;2024-03-02T10:13:07;9.40;99.90
37642;DHT22;23486;51.956;5.888;2024-03-02T10:15:33;9.50;99.90
37642;DHT22;23486;51.956;5.888;2024-03-02T10:17:59;9.60;99.90
37642;DHT22;23486;51.956;5.888;2024-03-02T10:20:25;9.70;99.90
37642;DHT22;23486;51.956;5.888;2024-03-02T10:22:50;9.70;99.90
37642;DHT22;23486;51.956;5.888;2024-03-02T10:25:28;9.80;99.90
37642;DHT22;23486;51.956;5.888;2024-03-02T10:27:56;9.80;99.90
37642;DHT22;23486;51.956;5.888;2024-03-02T10:30:22;9.90;99.90
37642;DHT22;23486;51.956;5.888;2024-03-02T10:32:48;10.00;99.90
37642;DHT22;23486;51.956;5.888;2024-03-02T10:35:14;10.00;99.90
37642;DHT22;23486;51.956;5.888;2024-03-02T10:37:43;10.00;99.90
37642;DHT22;23486;51.956;5.888;2024-03-02T10:40:11;10.10;99.90
37642;DHT22;23486;51.956;5.888;2024-03-02T10:42:37;10.10;99.90
37642;DHT22;23486;51.956;5.888;2024-03-02T10:45:05;10.20;99.90
37642;DHT22;23486;51.956;5.888;2024-03-02T10:47:31;10.20;99.90
37642;DHT22;23486;51.956;5.888;2024-03-02T10:49:57;10.30;99.90
37642;DHT22;23486;51.956;5.888;2024-03-02T10:52:24;10.30;99.90
37642;DHT22;23486;51.956;5.888;2024-03-02T10:54:50;10.30;99.90
37642;DHT22;23486;51.956;5.888;2024-03-02T10:57:15;10.40;99.90
37642;DHT22;23486;51.956;5.888;2024-03-02T11:00:01;10.40;99.90
37642;DHT22;23486;51.956;5.888;2024-03-02T11:02:27;10.40;99.90
37642;DHT22;23486;51.956;5.888;2024-03-02T11:04:54;10.50;99.90
37642;DHT22;23486;51.956;5.888;2024-03-02T11:07:20;10.50;99.90
37642;DHT22;23486;51.956;5.888;2024-03-02T11:09:52;10.60;99.90
37642;DHT22;23486;51.956;5.888;2024-03-02T11:12:19;10.60;99.90
37642;DHT22;23486;51.956;5.888;2024-03-02T11:14:47;10.70;99.90
37642;DHT22;23486;51.956;5.888;2024-03-02T11:17:13;10.70;99.90
37642;DHT22;23486;51.956;5.888;2024-03-02T11:19:41;10.80;99.90
37642;DHT22;23486;51.956;5.888;2024-03-02T11:22:06;10.80;99.90
37642;DHT22;23486;51.956;5.888;2024-03-02T11:24:33;10.90;99.90
37642;DHT22;23486;51.956;5.888;2024-03-02T11:26:59;10.90;99.90
37642;DHT22;23486;51.956;5.888;2024-03-02T11:32:06;10.90;99.90
37642;DHT22;23486;51.956;5.888;2024-03-02T11:34:38;11.00;99.90
37642;DHT22;23486;51.956;5.888;2024-03-02T11:37:04;11.00;99.90
37642;DHT22;23486;51.956;5.888;2024-03-02T11:39:30;11.00;99.90
37642;DHT22;23486;51.956;5.888;2024-03-02T11:41:56;11.10;99.90
37642;DHT22;23486;51.956;5.888;2024-03-02T11:44:22;11.10;99.90
37642;DHT22;23486;51.956;5.888;2024-03-02T11:46:59;11.20;99.90
37642;DHT22;23486;51.956;5.888;2024-03-02T11:49:37;11.10;99.90
37642;DHT22;23486;51.956;5.888;2024-03-02T11:52:07;11.20;99.90
37642;DHT22;23486;51.956;5.888;2024-03-02T11:54:33;11.30;99.90
37642;DHT22;23486;51.956;5.888;2024-03-02T11:57:02;11.40;99.90
37642;DHT22;23486;51.956;5.888;2024-03-02T11:59:31;11.40;99.90
37642;DHT22;23486;51.956;5.888;2024-03-02T12:01:57;11.40;99.90
37642;DHT22;23486;51.956;5.888;2024-03-02T12:04:23;11.30;99.90
37642;DHT22;23486;51.956;5.888;2024-03-02T12:06:55;11.40;99.90
37642;DHT22;23486;51.956;5.888;2024-03-02T12:09:21;11.50;99.90
37642;DHT22;23486;51.956;5.888;2024-03-02T12:11:46;11.50;99.90
37642;DHT22;23486;51.956;5.888;2024-03-02T12:14:12;11.60;99.90
37642;DHT22;23486;51.956;5.888;2024-03-02T12:16:38;11.60;99.90
37642;DHT22;23486;51.956;5.888;2024-03-02T12:19:05;11.60;99.90
37642;DHT22;23486;51.956;5.888;2024-03-02T12:21:31;11.70;99.90
37642;DHT22;23486;51.956;5.888;2024-03-02T12:23:59;11.80;99.90
37642;DHT22;23486;51.956;5.888;2024-03-02T12:26:25;11.80;99.90
37642;DHT22;23486;51.956;5.888;2024-03-02T12:28:50;11.90;99.90
37642;DHT22;23486;51.956;5.888;2024-03-02T12:31:17;11.90;99.90
37642;DHT22;23486;51.956;5.888;2024-03-02T12:33:42;12.00;99.90
37642;DHT22;23486;51.956;5.888;2024-03-02T12:36:10;12.00;99.90
37642;DHT22;23486;51.956;5.888;2024-03-02T12:38:45;12.00;99.90
37642;DHT22;23486;51.956;5.888;2024-03-02T12:41:14;12.00;99.90
37642;DHT22;23486;51.956;5.888;2024-03-02T12:43:39;12.10;99.90
37642;DHT22;23486;51.956;5.888;2024-03-02T12:46:05;12.20;99.90
37642;DHT22;23486;51.956;5.888;2024-03-02T12:48:31;12.30;99.90
37642;DHT22;23486;51.956;5.888;2024-03-02T12:50:56;12.20;99.90
37642;DHT22;23486;51.956;5.888;2024-03-02T12:53:22;12.20;99.90
37642;DHT22;23486;51.956;5.888;2024-03-02T12:55:47;12.30;99.90
37642;DHT22;23486;51.956;5.888;2024-03-02T12:58:19;12.40;99.90
37642;DHT22;23486;51.956;5.888;2024-03-02T13:00:46;12.50;99.90
37642;DHT22;23486;51.956;5.888;2024-03-02T13:03:11;12.60;99.90
37642;DHT22;23486;51.956;5.888;2024-03-02T13:05:37;12.70;99.90
37642;DHT22;23486;51.956;5.888;2024-03-02T13:08:02;12.80;99.90
37642;DHT22;23486;51.956;5.888;2024-03-02T13:10:30;12.80;99.90
37642;DHT22;23486;51.956;5.888;2024-03-02T13:12:56;12.90;99.90
37642;DHT22;23486;51.956;5.888;2024-03-02T13:15:21;12.90;99.90
37642;DHT22;23486;51.956;5.888;2024-03-02T13:17:47;13.00;99.90
37642;DHT22;23486;51.956;5.888;2024-03-02T13:20:14;13.10;99.90
37642;DHT22;23486;51.956;5.888;2024-03-02T13:22:40;13.20;99.90
37642;DHT22;23486;51.956;5.888;2024-03-02T13:25:05;13.10;99.90
37642;DHT22;23486;51.956;5.888;2024-03-02T13:27:31;13.20;99.90
37642;DHT22;23486;51.956;5.888;2024-03-02T13:29:57;13.30;99.90
37642;DHT22;23486;51.956;5.888;2024-03-02T13:32:23;13.40;99.90
37642;DHT22;23486;51.956;5.888;2024-03-02T13:34:51;13.50;99.90
37642;DHT22;23486;51.956;5.888;2024-03-02T13:37:16;13.50;99.90
37642;DHT22;23486;51.956;5.888;2024-03-02T13:39:42;13.50;99.90
37642;DHT22;23486;51.956;5.888;2024-03-02T13:42:08;13.50;99.90
37642;DHT22;23486;51.956;5.888;2024-03-02T13:44:34;13.50;99.90
37642;DHT22;23486;51.956;5.888;2024-03-02T13:47:00;13.50;99.90
37642;DHT22;23486;51.956;5.888;2024-03-02T13:49:25;13.50;99.90
37642;DHT22;23486;51.956;5.888;2024-03-02T13:52:07;13.50;99.90
37642;DHT22;23486;51.956;5.888;2024-03-02T13:54:42;13.40;99.90
37642;DHT22;23486;51.956;5.888;2024-03-02T13:57:08;13.30;99.90
37642;DHT22;23486;51.956;5.888;2024-03-02T13:59:34;13.20;99.90
37642;DHT22;23486;51.956;5.888;2024-03-02T14:02:03;13.20;99.90
37642;DHT22;23486;51.956;5.888;2024-03-02T14:04:35;13.10;99.90
37642;DHT22;23486;51.956;5.888;2024-03-02T14:07:01;13.10;99.90
37642;DHT22;23486;51.956;5.888;2024-03-02T14:09:27;13.10;99.90
37642;DHT22;23486;51.956;5.888;2024-03-02T14:11:55;13.00;99.90
37642;DHT22;23486;51.956;5.888;2024-03-02T14:14:21;12.90;99.90
37642;DHT22;23486;51.956;5.888;2024-03-02T14:16:55;12.90;99.90
37642;DHT22;23486;51.956;5.888;2024-03-02T14:19:21;13.00;99.90
37642;DHT22;23486;51.956;5.888;2024-03-02T14:21:49;13.10;99.90
37642;DHT22;23486;51.956;5.888;2024-03-02T14:24:15;13.20;99.90
37642;DHT22;23486;51.956;5.888;2024-03-02T14:26:40;13.20;99.90
37642;DHT22;23486;51.956;5.888;2024-03-02T14:29:06;13.20;99.90
37642;DHT22;23486;51.956;5.888;2024-03-02T14:31:31;13.40;99.90
37642;DHT22;23486;51.956;5.888;2024-03-02T14:33:57;13.40;99.90
37642;DHT22;23486;51.956;5.888;2024-03-02T14:36:23;13.40;99.90
37642;DHT22;23486;51.956;5.888;2024-03-02T14:38:48;13.50;99.90
37642;DHT22;23486;51.956;5.888;2024-03-02T14:41:14;13.50;99.90
37642;DHT22;23486;51.956;5.888;2024-03-02T14:43:39;13.50;99.90
37642;DHT22;23486;51.956;5.888;2024-03-02T14:46:06;13.50;99.90
37642;DHT22;23486;51.956;5.888;2024-03-02T14:48:33;13.50;99.90
37642;DHT22;23486;51.956;5.888;2024-03-02T14:50:59;13.50;99.90
37642;DHT22;23486;51.956;5.888;2024-03-02T14:53:24;13.50;99.90
37642;DHT22;23486;51.956;5.888;2024-03-02T14:55:50;13.60;99.90
37642;DHT22;23486;51.956;5.888;2024-03-02T14:58:15;13.60;99.90
37642;DHT22;23486;51.956;5.888;2024-03-02T15:00:41;13.70;99.90
37642;DHT22;23486;51.956;5.888;2024-03-02T15:03:06;13.80;99.90
37642;DHT22;23486;51.956;5.888;2024-03-02T15:05:34;13.80;99.90
37642;DHT22;23486;51.956;5.888;2024-03-02T15:07:59;13.90;99.90
37642;DHT22;23486;51.956;5.888;2024-03-02T15:10:27;13.90;99.90
37642;DHT22;23486;51.956;5.888;2024-03-02T15:12:53;14.00;99.90
37642;DHT22;23486;51.956;5.888;2024-03-02T15:15:18;14.00;99.90
37642;DHT22;23486;51.956;5.888;2024-03-02T15:17:44;14.00;99.90
37642;DHT22;23486;51.956;5.888;2024-03-02T15:20:09;14.00;99.90
37642;DHT22;23486;51.956;5.888;2024-03-02T15:22:35;14.00;99.90
37642;DHT22;23486;51.956;5.888;2024-03-02T15:25:00;14.10;99.90
37642;DHT22;23486;51.956;5.888;2024-03-02T15:27:25;14.10;99.90
37642;DHT22;23486;51.956;5.888;2024-03-02T15:29:52;14.20;99.90
37642;DHT22;23486;51.956;5.888;2024-03-02T15:32:18;14.30;99.90
37642;DHT22;23486;51.956;5.888;2024-03-02T15:34:44;14.50;99.90
37642;DHT22;23486;51.956;5.888;2024-03-02T15:37:09;14.50;99.90
37642;DHT22;23486;51.956;5.888;2024-03-02T15:39:35;14.50;99.90
37642;DHT22;23486;51.956;5.888;2024-03-02T15:42:00;14.60;99.90
37642;DHT22;23486;51.956;5.888;2024-03-02T15:44:26;14.70;99.90